sensor_id;sensor_type;location;lat;lon;timestamp;pressure;altitude;pressure_sealevel;temperature;humidity
5284;BME280;15377;48.540;9.268;2023-06-22T00:01:21;97483.56;;;21.73;100.00
5284;BME280;15377;48.540;9.268;2023-06-22T00:03:47;97494.63;;;21.78;100.00
5284;BME280;15377;48.540;9.268;2023-06-22T00:06:13;97483.38;;;21.71;100.00
5284;BME280;15377;48.540;9.268;2023-06-22T00:08:38;97484.00;;;21.64;100.00
5284;BME280;15377;48.540;9.268;2023-06-22T00:11:03;97486.59;;;21.62;100.00
5284;BME280;15377;48.540;9.268;2023-06-22T00:13:29;97484.25;;;21.53;100.00
5284;BME280;15377;48.540;9.268;2023-06-22T00:15:54;97496.97;;;21.54;100.00
5284;BME280;15377;48.540;9.268;2023-06-22T00:18:19;97484.94;;;21.46;100.00
5284;BME280;15377;48.540;9.268;2023-06-22T00:20:45;97490.31;;;21.44;100.00
5284;BME280;15377;48.540;9.268;2023-06-22T00:23:11;97497.84;;;21.36;100.00
5284;BME280;15377;48.540;9.268;2023-06-22T00:25:40;97483.59;;;21.00;100.00
5284;BME280;15377;48.540;9.268;2023-06-22T00:28:06;97503.75;;;20.99;100.00
5284;BME280;15377;48.540;9.268;2023-06-22T00:30:31;97496.84;;;21.00;100.00
5284;BME280;15377;48.540;9.268;2023-06-22T00:32:58;97495.56;;;21.01;100.00
5284;BME280;15377;48.540;9.268;2023-06-22T00:35:24;97489.53;;;20.97;100.00
5284;BME280;15377;48.540;9.268;2023-06-22T00:37:54;97474.34;;;20.92;100.00
5284;BME280;15377;48.540;9.268;2023-06-22T00:40:26;97494.28;;;20.89;100.00
5284;BME280;15377;48.540;9.268;2023-06-22T00:42:52;97462.72;;;20.75;100.00
5284;BME280;15377;48.540;9.268;2023-06-22T00:45:17;97453.13;;;20.71;100.00
5284;BME280;15377;48.540;9.268;2023-06-22T00:47:42;97445.84;;;20.68;100.00
5284;BME280;15377;48.540;9.268;2023-06-22T00:50:10;97446.03;;;20.57;100.00
5284;BME280;15377;48.540;9.268;2023-06-22T00:52:38;97461.31;;;20.56;100.00
5284;BME280;15377;48.540;9.268;2023-06-22T00:55:08;97463.25;;;20.48;100.00
5284;BME280;15377;48.540;9.268;2023-06-22T00:57:34;97450.56;;;20.34;100.00
5284;BME280;15377;48.540;9.268;2023-06-22T01:00:02;97458.28;;;20.41;100.00
5284;BME280;15377;48.540;9.268;2023-06-22T01:02:31;97460.31;;;20.27;100.00
5284;BME280;15377;48.540;9.268;2023-06-22T01:04:56;97472.69;;;20.19;100.00
5284;BME280;15377;48.540;9.268;2023-06-22T01:12:25;97496.09;;;19.97;100.00
5284;BME280;15377;48.540;9.268;2023-06-22T01:15:10;97496.19;;;19.92;100.00
5284;BME280;15377;48.540;9.268;2023-06-22T01:17:40;97501.69;;;19.97;100.00
5284;BME280;15377;48.540;9.268;2023-06-22T01:20:07;97495.78;;;20.01;100.00
5284;BME280;15377;48.540;9.268;2023-06-22T01:22:42;97506.38;;;20.08;100.00
5284;BME280;15377;48.540;9.268;2023-06-22T01:30:07;97501.91;;;20.18;100.00
5284;BME280;15377;48.540;9.268;2023-06-22T01:32:36;97502.09;;;20.07;100.00
5284;BME280;15377;48.540;9.268;2023-06-22T01:35:05;97505.56;;;19.94;100.00
5284;BME280;15377;48.540;9.268;2023-06-22T01:37:32;97501.25;;;19.93;100.00
5284;BME280;15377;48.540;9.268;2023-06-22T01:39:59;97482.31;;;19.86;100.00
5284;BME280;15377;48.540;9.268;2023-06-22T01:42:25;97501.25;;;19.93;100.00
5284;BME280;15377;48.540;9.268;2023-06-22T01:44:53;97484.44;;;19.80;100.00
5284;BME280;15377;48.540;9.268;2023-06-22T01:47:20;97492.47;;;19.71;100.00
5284;BME280;15377;48.540;9.268;2023-06-22T01:49:45;97490.94;;;19.70;100.00
5284;BME280;15377;48.540;9.268;2023-06-22T01:52:11;97502.06;;;19.75;100.00
5284;BME280;15377;48.540;9.268;2023-06-22T01:54:38;97483.56;;;19.54;100.00
5284;BME280;15377;48.540;9.268;2023-06-22T01:57:03;97498.38;;;19.49;100.00
5284;BME280;15377;48.540;9.268;2023-06-22T01:59:34;97496.97;;;19.24;100.00
5284;BME280;15377;48.540;9.268;2023-06-22T02:02:08;97488.06;;;19.01;100.00
5284;BME280;15377;48.540;9.268;2023-06-22T02:04:58;97482.88;;;19.11;100.00
5284;BME280;15377;48.540;9.268;2023-06-22T02:07:29;97475.59;;;19.08;100.00
5284;BME280;15377;48.540;9.268;2023-06-22T02:09:58;97489.91;;;19.17;100.00
5284;BME280;15377;48.540;9.268;2023-06-22T02:12:25;97483.81;;;19.19;100.00
5284;BME280;15377;48.540;9.268;2023-06-22T02:14:53;97461.75;;;18.97;100.00
5284;BME280;15377;48.540;9.268;2023-06-22T02:17:19;97476.84;;;18.88;100.00
5284;BME280;15377;48.540;9.268;2023-06-22T02:19:45;97480.09;;;18.69;100.00
5284;BME280;15377;48.540;9.268;2023-06-22T02:22:10;97476.22;;;18.53;100.00
5284;BME280;15377;48.540;9.268;2023-06-22T02:24:37;97483.66;;;18.45;100.00
5284;BME280;15377;48.540;9.268;2023-06-22T02:27:03;97497.59;;;18.69;100.00
5284;BME280;15377;48.540;9.268;2023-06-22T02:29:28;97486.91;;;18.73;100.00
5284;BME280;15377;48.540;9.268;2023-06-22T02:31:54;97487.38;;;18.77;100.00
5284;BME280;15377;48.540;9.268;2023-06-22T02:34:21;97500.69;;;18.66;100.00
5284;BME280;15377;48.540;9.268;2023-06-22T02:36:48;97494.63;;;18.62;100.00
5284;BME280;15377;48.540;9.268;2023-06-22T02:39:20;97487.47;;;18.66;100.00
5284;BME280;15377;48.540;9.268;2023-06-22T02:41:48;97488.63;;;18.76;100.00
5284;BME280;15377;48.540;9.268;2023-06-22T02:44:13;97478.72;;;18.81;100.00
5284;BME280;15377;48.540;9.268;2023-06-22T02:46:39;97470.16;;;18.73;100.00
5284;BME280;15377;48.540;9.268;2023-06-22T02:49:04;97487.66;;;18.74;100.00
5284;BME280;15377;48.540;9.268;2023-06-22T02:51:32;97493.00;;;18.48;100.00
5284;BME280;15377;48.540;9.268;2023-06-22T02:53:59;97473.16;;;18.27;100.00
5284;BME280;15377;48.540;9.268;2023-06-22T02:56:24;97471.94;;;18.23;100.00
5284;BME280;15377;48.540;9.268;2023-06-22T02:58:49;97457.00;;;18.20;100.00
5284;BME280;15377;48.540;9.268;2023-06-22T03:01:15;97466.19;;;18.15;100.00
5284;BME280;15377;48.540;9.268;2023-06-22T03:03:40;97452.69;;;17.95;100.00
5284;BME280;15377;48.540;9.268;2023-06-22T03:06:06;97436.66;;;17.77;100.00
5284;BME280;15377;48.540;9.268;2023-06-22T03:08:31;97440.72;;;17.76;100.00
5284;BME280;15377;48.540;9.268;2023-06-22T03:10:56;97456.31;;;17.90;100.00
5284;BME280;15377;48.540;9.268;2023-06-22T03:13:22;97448.91;;;17.98;100.00
5284;BME280;15377;48.540;9.268;2023-06-22T03:15:48;97452.13;;;18.02;100.00
5284;BME280;15377;48.540;9.268;2023-06-22T03:18:13;97434.59;;;17.83;100.00
5284;BME280;15377;48.540;9.268;2023-06-22T03:20:40;97445.72;;;17.83;100.00
5284;BME280;15377;48.540;9.268;2023-06-22T03:23:06;97433.16;;;17.71;100.00
5284;BME280;15377;48.540;9.268;2023-06-22T03:25:31;97432.97;;;17.64;100.00
5284;BME280;15377;48.540;9.268;2023-06-22T03:27:59;97434.94;;;17.69;100.00
5284;BME280;15377;48.540;9.268;2023-06-22T03:30:26;97432.22;;;17.63;100.00
5284;BME280;15377;48.540;9.268;2023-06-22T03:32:51;97438.81;;;17.60;100.00
5284;BME280;15377;48.540;9.268;2023-06-22T03:35:17;97431.25;;;17.55;100.00
5284;BME280;15377;48.540;9.268;2023-06-22T03:37:42;97434.94;;;17.74;100.00
5284;BME280;15377;48.540;9.268;2023-06-22T03:40:08;97424.91;;;17.90;100.00
5284;BME280;15377;48.540;9.268;2023-06-22T03:42:34;97409.38;;;17.70;100.00
5284;BME280;15377;48.540;9.268;2023-06-22T03:45:03;97432.59;;;17.78;100.00
5284;BME280;15377;48.540;9.268;2023-06-22T03:47:29;97409.50;;;17.59;100.00
5284;BME280;15377;48.540;9.268;2023-06-22T03:49:54;97438.72;;;17.71;100.00
5284;BME280;15377;48.540;9.268;2023-06-22T03:52:21;97428.69;;;17.63;100.00
5284;BME280;15377;48.540;9.268;2023-06-22T03:54:47;97433.59;;;17.81;100.00
5284;BME280;15377;48.540;9.268;2023-06-22T03:57:12;97425.63;;;17.96;100.00
5284;BME280;15377;48.540;9.268;2023-06-22T03:59:38;97429.06;;;18.07;100.00
5284;BME280;15377;48.540;9.268;2023-06-22T04:02:03;97416.91;;;18.05;100.00
5284;BME280;15377;48.540;9.268;2023-06-22T04:04:29;97427.28;;;18.04;100.00
5284;BME280;15377;48.540;9.268;2023-06-22T04:06:54;97406.41;;;17.92;100.00
5284;BME280;15377;48.540;9.268;2023-06-22T04:09:19;97418.53;;;17.95;100.00
5284;BME280;15377;48.540;9.268;2023-06-22T04:11:46;97424.28;;;18.02;100.00
5284;BME280;15377;48.540;9.268;2023-06-22T04:14:12;97422.91;;;18.14;100.00
5284;BME280;15377;48.540;9.268;2023-06-22T04:16:37;97432.13;;;18.28;100.00
5284;BME280;15377;48.540;9.268;2023-06-22T04:19:02;97402.34;;;18.17;100.00
5284;BME280;15377;48.540;9.268;2023-06-22T04:21:28;97414.91;;;18.29;100.00
5284;BME280;15377;48.540;9.268;2023-06-22T04:23:53;97416.31;;;18.41;100.00
5284;BME280;15377;48.540;9.268;2023-06-22T04:26:18;97412.56;;;18.57;100.00
5284;BME280;15377;48.540;9.268;2023-06-22T04:28:46;97404.75;;;18.74;100.00
5284;BME280;15377;48.540;9.268;2023-06-22T04:31:17;97393.16;;;18.70;100.00
5284;BME280;15377;48.540;9.268;2023-06-22T04:33:44;97399.66;;;18.78;100.00
5284;BME280;15377;48.540;9.268;2023-06-22T04:36:10;97382.00;;;18.70;100.00
5284;BME280;15377;48.540;9.268;2023-06-22T04:38:38;97379.88;;;18.76;100.00
5284;BME280;15377;48.540;9.268;2023-06-22T04:41:04;97385.84;;;18.85;100.00
5284;BME280;15377;48.540;9.268;2023-06-22T04:43:29;97368.59;;;18.87;100.00
5284;BME280;15377;48.540;9.268;2023-06-22T04:45:58;97371.00;;;18.96;100.00
5284;BME280;15377;48.540;9.268;2023-06-22T04:48:31;97388.03;;;19.11;100.00
5284;BME280;15377;48.540;9.268;2023-06-22T04:51:01;97385.94;;;19.17;100.00
5284;BME280;15377;48.540;9.268;2023-06-22T04:53:30;97381.72;;;19.29;100.00
5284;BME280;15377;48.540;9.268;2023-06-22T04:55:56;97375.13;;;19.45;100.00
5284;BME280;15377;48.540;9.268;2023-06-22T04:58:22;97371.41;;;19.55;100.00
5284;BME280;15377;48.540;9.268;2023-06-22T05:00:47;97366.38;;;19.67;100.00
5284;BME280;15377;48.540;9.268;2023-06-22T05:03:12;97357.81;;;19.78;100.00
5284;BME280;15377;48.540;9.268;2023-06-22T05:05:38;97351.38;;;19.83;100.00
5284;BME280;15377;48.540;9.268;2023-06-22T05:08:03;97359.53;;;19.94;100.00
5284;BME280;15377;48.540;9.268;2023-06-22T05:10:32;97351.16;;;19.94;100.00
5284;BME280;15377;48.540;9.268;2023-06-22T05:12:57;97361.53;;;20.12;100.00
5284;BME280;15377;48.540;9.268;2023-06-22T05:15:23;97358.72;;;20.25;100.00
5284;BME280;15377;48.540;9.268;2023-06-22T05:17:51;97355.72;;;20.23;100.00
5284;BME280;15377;48.540;9.268;2023-06-22T05:20:17;97352.50;;;20.32;100.00
5284;BME280;15377;48.540;9.268;2023-06-22T05:22:43;97346.91;;;20.32;100.00
5284;BME280;15377;48.540;9.268;2023-06-22T05:25:10;97360.25;;;20.52;100.00
5284;BME280;15377;48.540;9.268;2023-06-22T05:27:36;97351.31;;;20.53;100.00
5284;BME280;15377;48.540;9.268;2023-06-22T05:30:05;97347.75;;;20.66;100.00
5284;BME280;15377;48.540;9.268;2023-06-22T05:32:32;97344.06;;;20.71;100.00
5284;BME280;15377;48.540;9.268;2023-06-22T05:34:57;97349.13;;;20.85;100.00
5284;BME280;15377;48.540;9.268;2023-06-22T05:37:22;97359.09;;;20.94;100.00
5284;BME280;15377;48.540;9.268;2023-06-22T05:39:48;97353.38;;;20.99;100.00
5284;BME280;15377;48.540;9.268;2023-06-22T05:42:13;97356.94;;;21.00;100.00
5284;BME280;15377;48.540;9.268;2023-06-22T05:44:38;97345.56;;;20.98;100.00
5284;BME280;15377;48.540;9.268;2023-06-22T05:47:05;97361.22;;;21.14;100.00
5284;BME280;15377;48.540;9.268;2023-06-22T05:49:31;97367.31;;;21.25;100.00
5284;BME280;15377;48.540;9.268;2023-06-22T05:51:58;97368.47;;;21.30;100.00
5284;BME280;15377;48.540;9.268;2023-06-22T05:54:24;97356.97;;;21.20;100.00
5284;BME280;15377;48.540;9.268;2023-06-22T05:56:50;97374.91;;;21.38;100.00
5284;BME280;15377;48.540;9.268;2023-06-22T05:59:15;97362.41;;;21.39;100.00
5284;BME280;15377;48.540;9.268;2023-06-22T06:01:40;97367.00;;;21.49;100.00
5284;BME280;15377;48.540;9.268;2023-06-22T06:04:06;97367.81;;;21.57;100.00
5284;BME280;15377;48.540;9.268;2023-06-22T06:06:34;97372.81;;;21.72;100.00
5284;BME280;15377;48.540;9.268;2023-06-22T06:09:05;97367.88;;;21.85;100.00
5284;BME280;15377;48.540;9.268;2023-06-22T06:11:30;97382.78;;;22.01;100.00
5284;BME280;15377;48.540;9.268;2023-06-22T06:13:56;97362.00;;;21.96;100.00
5284;BME280;15377;48.540;9.268;2023-06-22T06:16:22;97366.41;;;22.12;100.00
5284;BME280;15377;48.540;9.268;2023-06-22T06:18:47;97359.00;;;22.22;100.00
5284;BME280;15377;48.540;9.268;2023-06-22T06:21:14;97374.59;;;22.31;100.00
5284;BME280;15377;48.540;9.268;2023-06-22T06:23:40;97361.38;;;22.39;100.00
5284;BME280;15377;48.540;9.268;2023-06-22T06:26:05;97366.88;;;22.52;100.00
5284;BME280;15377;48.540;9.268;2023-06-22T06:28:32;97379.28;;;22.64;100.00
5284;BME280;15377;48.540;9.268;2023-06-22T06:30:57;97379.16;;;22.77;100.00
5284;BME280;15377;48.540;9.268;2023-06-22T06:33:23;97375.44;;;22.82;100.00
5284;BME280;15377;48.540;9.268;2023-06-22T06:35:49;97373.03;;;22.86;100.00
5284;BME280;15377;48.540;9.268;2023-06-22T06:38:15;97369.50;;;22.92;100.00
5284;BME280;15377;48.540;9.268;2023-06-22T06:40:40;97368.41;;;23.03;100.00
5284;BME280;15377;48.540;9.268;2023-06-22T06:43:06;97369.03;;;23.16;100.00
5284;BME280;15377;48.540;9.268;2023-06-22T06:45:31;97376.41;;;23.34;100.00
5284;BME280;15377;48.540;9.268;2023-06-22T06:47:58;97374.38;;;23.42;100.00
5284;BME280;15377;48.540;9.268;2023-06-22T06:50:23;97362.94;;;23.48;100.00
5284;BME280;15377;48.540;9.268;2023-06-22T06:52:49;97372.91;;;23.56;100.00
5284;BME280;15377;48.540;9.268;2023-06-22T06:55:15;97378.31;;;23.69;100.00
5284;BME280;15377;48.540;9.268;2023-06-22T06:57:42;97374.97;;;23.78;100.00
5284;BME280;15377;48.540;9.268;2023-06-22T07:00:09;97379.84;;;23.78;100.00
5284;BME280;15377;48.540;9.268;2023-06-22T07:02:40;97398.22;;;23.86;100.00
5284;BME280;15377;48.540;9.268;2023-06-22T07:05:06;97384.00;;;23.99;100.00
5284;BME280;15377;48.540;9.268;2023-06-22T07:07:32;97392.63;;;24.09;100.00
5284;BME280;15377;48.540;9.268;2023-06-22T07:09:57;97392.44;;;24.14;100.00
5284;BME280;15377;48.540;9.268;2023-06-22T07:12:22;97376.13;;;24.20;100.00
5284;BME280;15377;48.540;9.268;2023-06-22T07:14:48;97367.28;;;24.31;100.00
5284;BME280;15377;48.540;9.268;2023-06-22T07:17:13;97377.41;;;24.42;100.00
5284;BME280;15377;48.540;9.268;2023-06-22T07:19:39;97347.19;;;24.42;100.00
5284;BME280;15377;48.540;9.268;2023-06-22T07:22:06;97352.94;;;24.74;100.00
5284;BME280;15377;48.540;9.268;2023-06-22T07:24:31;97356.50;;;24.82;100.00
5284;BME280;15377;48.540;9.268;2023-06-22T07:26:57;97355.44;;;25.02;100.00
5284;BME280;15377;48.540;9.268;2023-06-22T07:29:24;97350.91;;;25.07;100.00
5284;BME280;15377;48.540;9.268;2023-06-22T07:31:50;97363.88;;;25.10;100.00
5284;BME280;15377;48.540;9.268;2023-06-22T07:34:19;97355.72;;;25.21;100.00
5284;BME280;15377;48.540;9.268;2023-06-22T07:36:44;97338.66;;;25.27;100.00
5284;BME280;15377;48.540;9.268;2023-06-22T07:39:11;97330.75;;;25.25;100.00
5284;BME280;15377;48.540;9.268;2023-06-22T07:41:37;97319.44;;;25.33;100.00
5284;BME280;15377;48.540;9.268;2023-06-22T07:44:03;97316.59;;;25.40;100.00
5284;BME280;15377;48.540;9.268;2023-06-22T07:46:29;97304.00;;;25.41;100.00
5284;BME280;15377;48.540;9.268;2023-06-22T07:48:56;97307.38;;;25.40;100.00
5284;BME280;15377;48.540;9.268;2023-06-22T07:51:21;97313.25;;;25.59;100.00
5284;BME280;15377;48.540;9.268;2023-06-22T07:53:47;97315.16;;;25.56;100.00
5284;BME280;15377;48.540;9.268;2023-06-22T07:56:12;97306.88;;;25.58;100.00
5284;BME280;15377;48.540;9.268;2023-06-22T07:58:38;97309.44;;;25.64;100.00
5284;BME280;15377;48.540;9.268;2023-06-22T08:01:03;97301.38;;;25.60;100.00
5284;BME280;15377;48.540;9.268;2023-06-22T08:03:30;97301.47;;;25.77;100.00
5284;BME280;15377;48.540;9.268;2023-06-22T08:05:55;97307.47;;;25.98;100.00
5284;BME280;15377;48.540;9.268;2023-06-22T08:08:21;97300.63;;;26.09;100.00
5284;BME280;15377;48.540;9.268;2023-06-22T08:10:46;97294.94;;;26.16;100.00
5284;BME280;15377;48.540;9.268;2023-06-22T08:13:11;97298.56;;;26.09;100.00
5284;BME280;15377;48.540;9.268;2023-06-22T08:15:37;97298.72;;;26.11;100.00
5284;BME280;15377;48.540;9.268;2023-06-22T08:18:02;97312.00;;;26.18;100.00
5284;BME280;15377;48.540;9.268;2023-06-22T08:20:28;97307.69;;;26.34;100.00
5284;BME280;15377;48.540;9.268;2023-06-22T08:22:55;97327.81;;;26.55;100.00
5284;BME280;15377;48.540;9.268;2023-06-22T08:25:20;97339.59;;;26.61;100.00
5284;BME280;15377;48.540;9.268;2023-06-22T08:27:46;97348.47;;;26.75;100.00
5284;BME280;15377;48.540;9.268;2023-06-22T08:30:13;97355.22;;;26.79;100.00
5284;BME280;15377;48.540;9.268;2023-06-22T08:32:38;97364.69;;;26.74;100.00
5284;BME280;15377;48.540;9.268;2023-06-22T08:35:04;97355.94;;;26.80;100.00
5284;BME280;15377;48.540;9.268;2023-06-22T08:37:31;97381.06;;;26.76;100.00
5284;BME280;15377;48.540;9.268;2023-06-22T08:40:02;97383.13;;;26.75;100.00
5284;BME280;15377;48.540;9.268;2023-06-22T08:42:33;97410.69;;;26.84;100.00
5284;BME280;15377;48.540;9.268;2023-06-22T08:44:58;97405.78;;;26.68;100.00
5284;BME280;15377;48.540;9.268;2023-06-22T08:47:23;97407.84;;;26.84;100.00
5284;BME280;15377;48.540;9.268;2023-06-22T08:49:49;97401.03;;;27.04;100.00
5284;BME280;15377;48.540;9.268;2023-06-22T08:52:14;97393.03;;;27.10;100.00
5284;BME280;15377;48.540;9.268;2023-06-22T08:54:40;97389.22;;;27.32;100.00
5284;BME280;15377;48.540;9.268;2023-06-22T08:57:05;97401.38;;;27.51;100.00
5284;BME280;15377;48.540;9.268;2023-06-22T08:59:31;97392.38;;;27.62;100.00
5284;BME280;15377;48.540;9.268;2023-06-22T09:01:56;97380.81;;;27.68;100.00
5284;BME280;15377;48.540;9.268;2023-06-22T09:04:22;97363.56;;;27.73;100.00
5284;BME280;15377;48.540;9.268;2023-06-22T09:06:48;97380.66;;;28.02;100.00
5284;BME280;15377;48.540;9.268;2023-06-22T09:09:15;97371.00;;;28.05;100.00
5284;BME280;15377;48.540;9.268;2023-06-22T09:11:41;97371.00;;;28.05;100.00
5284;BME280;15377;48.540;9.268;2023-06-22T09:14:06;97373.13;;;28.14;100.00
5284;BME280;15377;48.540;9.268;2023-06-22T09:16:32;97365.06;;;28.10;100.00
5284;BME280;15377;48.540;9.268;2023-06-22T09:18:57;97388.03;;;28.24;100.00
5284;BME280;15377;48.540;9.268;2023-06-22T09:21:23;97388.16;;;28.16;100.00
5284;BME280;15377;48.540;9.268;2023-06-22T09:23:49;97376.38;;;28.20;100.00
5284;BME280;15377;48.540;9.268;2023-06-22T09:26:19;97358.72;;;28.29;100.00
5284;BME280;15377;48.540;9.268;2023-06-22T09:28:45;97355.47;;;28.51;100.00
5284;BME280;15377;48.540;9.268;2023-06-22T09:31:10;97339.25;;;28.52;100.00
5284;BME280;15377;48.540;9.268;2023-06-22T09:33:37;97349.38;;;28.74;100.00
5284;BME280;15377;48.540;9.268;2023-06-22T09:36:06;97346.13;;;28.68;100.00
5284;BME280;15377;48.540;9.268;2023-06-22T09:38:35;97345.91;;;28.37;100.00
5284;BME280;15377;48.540;9.268;2023-06-22T09:41:01;97340.75;;;28.53;100.00
5284;BME280;15377;48.540;9.268;2023-06-22T09:43:27;97335.97;;;28.65;100.00
5284;BME280;15377;48.540;9.268;2023-06-22T09:45:52;97333.44;;;28.88;100.00
5284;BME280;15377;48.540;9.268;2023-06-22T09:48:17;97324.91;;;29.07;100.00
5284;BME280;15377;48.540;9.268;2023-06-22T09:50:43;97317.75;;;29.25;100.00
5284;BME280;15377;48.540;9.268;2023-06-22T09:53:09;97325.13;;;29.49;100.00
5284;BME280;15377;48.540;9.268;2023-06-22T09:55:34;97318.38;;;29.63;100.00
5284;BME280;15377;48.540;9.268;2023-06-22T09:57:59;97320.44;;;29.72;100.00
5284;BME280;15377;48.540;9.268;2023-06-22T10:00:25;97323.41;;;30.05;100.00
5284;BME280;15377;48.540;9.268;2023-06-22T10:02:51;97314.91;;;30.05;100.00
5284;BME280;15377;48.540;9.268;2023-06-22T10:05:17;97315.69;;;30.26;100.00
5284;BME280;15377;48.540;9.268;2023-06-22T10:07:43;97304.28;;;30.36;100.00
5284;BME280;15377;48.540;9.268;2023-06-22T10:10:10;97306.47;;;30.58;100.00
5284;BME280;15377;48.540;9.268;2023-06-22T10:12:36;97300.22;;;30.81;100.00
5284;BME280;15377;48.540;9.268;2023-06-22T10:15:02;97296.78;;;30.94;100.00
5284;BME280;15377;48.540;9.268;2023-06-22T10:17:27;97298.69;;;30.80;100.00
5284;BME280;15377;48.540;9.268;2023-06-22T10:19:53;97288.25;;;30.94;100.00
5284;BME280;15377;48.540;9.268;2023-06-22T10:22:18;97288.78;;;31.46;100.00
5284;BME280;15377;48.540;9.268;2023-06-22T10:24:44;97286.81;;;32.05;100.00
5284;BME280;15377;48.540;9.268;2023-06-22T10:27:12;97262.03;;;32.31;100.00
5284;BME280;15377;48.540;9.268;2023-06-22T10:29:38;97283.50;;;32.93;99.04
5284;BME280;15377;48.540;9.268;2023-06-22T10:32:04;97294.34;;;33.33;93.19
5284;BME280;15377;48.540;9.268;2023-06-22T10:34:30;97287.72;;;33.17;93.05
5284;BME280;15377;48.540;9.268;2023-06-22T10:36:55;97276.03;;;33.63;93.41
5284;BME280;15377;48.540;9.268;2023-06-22T10:39:20;97264.13;;;33.94;91.06
5284;BME280;15377;48.540;9.268;2023-06-22T10:41:46;97254.03;;;34.20;91.47
5284;BME280;15377;48.540;9.268;2023-06-22T10:44:11;97267.47;;;34.44;84.73
5284;BME280;15377;48.540;9.268;2023-06-22T10:46:37;97263.03;;;34.84;83.52
5284;BME280;15377;48.540;9.268;2023-06-22T10:49:03;97246.19;;;34.47;83.94
5284;BME280;15377;48.540;9.268;2023-06-22T10:51:28;97246.97;;;33.94;82.70
5284;BME280;15377;48.540;9.268;2023-06-22T10:53:54;97249.69;;;33.51;87.47
5284;BME280;15377;48.540;9.268;2023-06-22T10:56:19;97243.25;;;33.64;86.85
5284;BME280;15377;48.540;9.268;2023-06-22T10:58:45;97244.94;;;33.69;89.09
5284;BME280;15377;48.540;9.268;2023-06-22T11:01:10;97254.44;;;33.60;84.71
5284;BME280;15377;48.540;9.268;2023-06-22T11:03:36;97252.28;;;33.86;88.04
5284;BME280;15377;48.540;9.268;2023-06-22T11:06:01;97260.09;;;33.99;85.45
5284;BME280;15377;48.540;9.268;2023-06-22T11:08:26;97257.53;;;34.18;79.95
5284;BME280;15377;48.540;9.268;2023-06-22T11:10:52;97246.97;;;34.34;83.93
5284;BME280;15377;48.540;9.268;2023-06-22T11:13:17;97258.38;;;34.90;83.41
5284;BME280;15377;48.540;9.268;2023-06-22T11:15:43;97258.47;;;35.21;81.83
5284;BME280;15377;48.540;9.268;2023-06-22T11:18:08;97255.63;;;35.52;81.08
5284;BME280;15377;48.540;9.268;2023-06-22T11:20:34;97263.63;;;35.56;74.63
5284;BME280;15377;48.540;9.268;2023-06-22T11:23:03;97254.78;;;35.65;77.57
5284;BME280;15377;48.540;9.268;2023-06-22T11:25:29;97251.25;;;35.51;71.51
5284;BME280;15377;48.540;9.268;2023-06-22T11:27:54;97240.47;;;35.65;75.06
5284;BME280;15377;48.540;9.268;2023-06-22T11:30:19;97224.97;;;35.70;74.63
5284;BME280;15377;48.540;9.268;2023-06-22T11:32:45;97220.06;;;35.42;75.27
5284;BME280;15377;48.540;9.268;2023-06-22T11:35:10;97211.66;;;35.46;78.74
5284;BME280;15377;48.540;9.268;2023-06-22T11:37:35;97206.88;;;34.90;75.75
5284;BME280;15377;48.540;9.268;2023-06-22T11:40:01;97218.41;;;34.34;78.10
5284;BME280;15377;48.540;9.268;2023-06-22T11:42:29;97218.63;;;33.71;80.20
5284;BME280;15377;48.540;9.268;2023-06-22T11:44:55;97236.25;;;33.40;83.73
5284;BME280;15377;48.540;9.268;2023-06-22T11:47:20;97245.41;;;33.00;84.05
5284;BME280;15377;48.540;9.268;2023-06-22T11:49:45;97245.53;;;33.02;86.08
5284;BME280;15377;48.540;9.268;2023-06-22T11:52:11;97231.25;;;33.27;86.52
5284;BME280;15377;48.540;9.268;2023-06-22T11:54:37;97225.91;;;33.60;86.56
5284;BME280;15377;48.540;9.268;2023-06-22T11:57:03;97240.63;;;33.82;80.33
5284;BME280;15377;48.540;9.268;2023-06-22T11:59:29;97209.63;;;34.17;82.04
5284;BME280;15377;48.540;9.268;2023-06-22T12:01:54;97194.81;;;34.20;82.09
5284;BME280;15377;48.540;9.268;2023-06-22T12:04:20;97182.03;;;33.67;81.20
5284;BME280;15377;48.540;9.268;2023-06-22T12:06:45;97195.69;;;33.82;84.07
5284;BME280;15377;48.540;9.268;2023-06-22T12:09:11;97206.06;;;33.89;85.48
5284;BME280;15377;48.540;9.268;2023-06-22T12:11:38;97210.50;;;33.92;81.94
5284;BME280;15377;48.540;9.268;2023-06-22T12:14:04;97207.44;;;33.88;83.62
5284;BME280;15377;48.540;9.268;2023-06-22T12:16:29;97214.50;;;33.60;84.29
5284;BME280;15377;48.540;9.268;2023-06-22T12:18:55;97224.19;;;33.55;88.11
5284;BME280;15377;48.540;9.268;2023-06-22T12:21:20;97232.53;;;33.38;87.07
5284;BME280;15377;48.540;9.268;2023-06-22T12:23:45;97220.81;;;33.07;87.49
5284;BME280;15377;48.540;9.268;2023-06-22T12:26:11;97233.31;;;32.88;87.59
5284;BME280;15377;48.540;9.268;2023-06-22T12:28:36;97242.63;;;32.52;88.65
5284;BME280;15377;48.540;9.268;2023-06-22T12:31:01;97245.75;;;31.86;90.93
5284;BME280;15377;48.540;9.268;2023-06-22T12:33:27;97255.38;;;31.58;96.15
5284;BME280;15377;48.540;9.268;2023-06-22T12:35:52;97265.25;;;31.45;97.16
5284;BME280;15377;48.540;9.268;2023-06-22T12:38:17;97271.34;;;31.07;95.82
5284;BME280;15377;48.540;9.268;2023-06-22T12:40:43;97283.25;;;31.04;97.14
5284;BME280;15377;48.540;9.268;2023-06-22T12:43:08;97283.88;;;30.81;97.75
5284;BME280;15377;48.540;9.268;2023-06-22T12:45:33;97282.69;;;30.96;98.83
5284;BME280;15377;48.540;9.268;2023-06-22T12:48:00;97284.47;;;31.12;99.72
5284;BME280;15377;48.540;9.268;2023-06-22T12:50:25;97273.34;;;30.72;100.00
5284;BME280;15377;48.540;9.268;2023-06-22T12:52:50;97258.16;;;30.68;100.00
5284;BME280;15377;48.540;9.268;2023-06-22T12:55:16;97247.03;;;30.72;100.00
5284;BME280;15377;48.540;9.268;2023-06-22T12:57:41;97238.03;;;30.75;100.00
5284;BME280;15377;48.540;9.268;2023-06-22T13:00:07;97239.69;;;30.90;100.00
5284;BME280;15377;48.540;9.268;2023-06-22T13:02:35;97244.13;;;30.93;100.00
5284;BME280;15377;48.540;9.268;2023-06-22T13:05:01;97260.50;;;31.04;100.00
5284;BME280;15377;48.540;9.268;2023-06-22T13:07:26;97258.56;;;31.18;100.00